sensor_id;sensor_type;location;lat;lon;timestamp;P1;durP1;ratioP1;P2;durP2;ratioP2
8050;SDS011;4068;42.158;24.732;2023-07-09T00:00:47;6.20;;;3.67;;
8050;SDS011;4068;42.158;24.732;2023-07-09T00:03:13;4.90;;;4.20;;
8050;SDS011;4068;42.158;24.732;2023-07-09T00:05:39;5.55;;;3.90;;
8050;SDS011;4068;42.158;24.732;2023-07-09T00:08:05;10.23;;;4.57;;
8050;SDS011;4068;42.158;24.732;2023-07-09T00:11:05;4.30;;;3.80;;
8050;SDS011;4068;42.158;24.732;2023-07-09T00:13:30;6.90;;;3.92;;
8050;SDS011;4068;42.158;24.732;2023-07-09T00:15:57;5.00;;;3.83;;
8050;SDS011;4068;42.158;24.732;2023-07-09T00:18:25;5.65;;;3.92;;
8050;SDS011;4068;42.158;24.732;2023-07-09T00:20:50;6.70;;;4.00;;
8050;SDS011;4068;42.158;24.732;2023-07-09T00:23:16;5.07;;;3.42;;
8050;SDS011;4068;42.158;24.732;2023-07-09T00:25:45;4.68;;;4.10;;
8050;SDS011;4068;42.158;24.732;2023-07-09T00:28:16;4.43;;;3.78;;
8050;SDS011;4068;42.158;24.732;2023-07-09T00:30:42;4.13;;;3.72;;
8050;SDS011;4068;42.158;24.732;2023-07-09T00:33:10;4.97;;;3.95;;
8050;SDS011;4068;42.158;24.732;2023-07-09T00:35:39;4.93;;;4.13;;
8050;SDS011;4068;42.158;24.732;2023-07-09T00:38:16;3.95;;;3.55;;
8050;SDS011;4068;42.158;24.732;2023-07-09T00:40:48;4.03;;;3.63;;
8050;SDS011;4068;42.158;24.732;2023-07-09T00:43:34;4.57;;;3.92;;
8050;SDS011;4068;42.158;24.732;2023-07-09T00:48:38;6.40;;;3.65;;
8050;SDS011;4068;42.158;24.732;2023-07-09T00:51:07;3.38;;;3.08;;
8050;SDS011;4068;42.158;24.732;2023-07-09T00:53:36;4.43;;;3.50;;
8050;SDS011;4068;42.158;24.732;2023-07-09T00:56:08;7.78;;;4.03;;
8050;SDS011;4068;42.158;24.732;2023-07-09T00:58:36;4.72;;;3.88;;
8050;SDS011;4068;42.158;24.732;2023-07-09T01:01:04;6.93;;;3.60;;
8050;SDS011;4068;42.158;24.732;2023-07-09T01:03:39;5.38;;;3.67;;
8050;SDS011;4068;42.158;24.732;2023-07-09T01:06:07;4.38;;;3.60;;
8050;SDS011;4068;42.158;24.732;2023-07-09T01:08:35;6.57;;;3.88;;
8050;SDS011;4068;42.158;24.732;2023-07-09T01:11:03;5.85;;;3.85;;
8050;SDS011;4068;42.158;24.732;2023-07-09T01:13:29;6.80;;;3.42;;
8050;SDS011;4068;42.158;24.732;2023-07-09T01:16:00;6.32;;;3.97;;
8050;SDS011;4068;42.158;24.732;2023-07-09T01:18:25;4.82;;;3.50;;
8050;SDS011;4068;42.158;24.732;2023-07-09T01:20:57;4.00;;;3.60;;
8050;SDS011;4068;42.158;24.732;2023-07-09T01:23:34;6.68;;;3.70;;
8050;SDS011;4068;42.158;24.732;2023-07-09T01:26:00;6.45;;;3.95;;
8050;SDS011;4068;42.158;24.732;2023-07-09T01:28:25;5.00;;;3.65;;
8050;SDS011;4068;42.158;24.732;2023-07-09T01:30:51;4.55;;;4.10;;
8050;SDS011;4068;42.158;24.732;2023-07-09T01:33:19;3.92;;;3.60;;
8050;SDS011;4068;42.158;24.732;2023-07-09T01:35:46;5.38;;;3.78;;
8050;SDS011;4068;42.158;24.732;2023-07-09T01:38:11;4.57;;;3.60;;
8050;SDS011;4068;42.158;24.732;2023-07-09T01:40:36;6.22;;;3.53;;
8050;SDS011;4068;42.158;24.732;2023-07-09T01:43:03;6.00;;;3.72;;
8050;SDS011;4068;42.158;24.732;2023-07-09T01:45:31;4.88;;;3.45;;
8050;SDS011;4068;42.158;24.732;2023-07-09T01:47:58;10.75;;;3.90;;
8050;SDS011;4068;42.158;24.732;2023-07-09T01:50:23;3.78;;;3.28;;
8050;SDS011;4068;42.158;24.732;2023-07-09T01:52:49;3.67;;;3.38;;
8050;SDS011;4068;42.158;24.732;2023-07-09T01:55:15;10.07;;;3.58;;
8050;SDS011;4068;42.158;24.732;2023-07-09T01:57:42;5.13;;;3.60;;
8050;SDS011;4068;42.158;24.732;2023-07-09T02:00:09;4.35;;;3.47;;
8050;SDS011;4068;42.158;24.732;2023-07-09T02:02:36;7.65;;;3.58;;
8050;SDS011;4068;42.158;24.732;2023-07-09T02:05:04;4.20;;;3.80;;
8050;SDS011;4068;42.158;24.732;2023-07-09T02:07:30;6.00;;;3.65;;
8050;SDS011;4068;42.158;24.732;2023-07-09T02:09:57;7.03;;;3.83;;
8050;SDS011;4068;42.158;24.732;2023-07-09T02:12:23;11.15;;;3.67;;
8050;SDS011;4068;42.158;24.732;2023-07-09T02:14:49;10.80;;;3.97;;
8050;SDS011;4068;42.158;24.732;2023-07-09T02:17:15;7.10;;;3.88;;
8050;SDS011;4068;42.158;24.732;2023-07-09T02:19:40;8.38;;;3.28;;
8050;SDS011;4068;42.158;24.732;2023-07-09T02:22:06;4.90;;;3.58;;
8050;SDS011;4068;42.158;24.732;2023-07-09T02:24:33;5.82;;;3.60;;
8050;SDS011;4068;42.158;24.732;2023-07-09T02:27:00;8.68;;;3.65;;
8050;SDS011;4068;42.158;24.732;2023-07-09T02:29:27;3.78;;;3.25;;
8050;SDS011;4068;42.158;24.732;2023-07-09T02:31:54;6.97;;;3.63;;
8050;SDS011;4068;42.158;24.732;2023-07-09T02:34:21;5.07;;;3.88;;
8050;SDS011;4068;42.158;24.732;2023-07-09T02:36:51;4.00;;;3.60;;
8050;SDS011;4068;42.158;24.732;2023-07-09T02:39:17;9.73;;;4.43;;
8050;SDS011;4068;42.158;24.732;2023-07-09T02:41:43;5.50;;;4.00;;
8050;SDS011;4068;42.158;24.732;2023-07-09T02:44:08;4.45;;;3.70;;
8050;SDS011;4068;42.158;24.732;2023-07-09T02:46:34;6.00;;;3.42;;
8050;SDS011;4068;42.158;24.732;2023-07-09T02:49:00;5.20;;;4.07;;
8050;SDS011;4068;42.158;24.732;2023-07-09T02:51:28;5.57;;;3.88;;
8050;SDS011;4068;42.158;24.732;2023-07-09T02:53:54;7.78;;;3.58;;
8050;SDS011;4068;42.158;24.732;2023-07-09T02:56:19;4.38;;;3.83;;
8050;SDS011;4068;42.158;24.732;2023-07-09T02:58:45;3.85;;;3.38;;
8050;SDS011;4068;42.158;24.732;2023-07-09T03:01:10;7.25;;;3.40;;
8050;SDS011;4068;42.158;24.732;2023-07-09T03:03:37;4.28;;;3.20;;
8050;SDS011;4068;42.158;24.732;2023-07-09T03:06:03;5.03;;;3.42;;
8050;SDS011;4068;42.158;24.732;2023-07-09T03:08:29;4.05;;;3.30;;
8050;SDS011;4068;42.158;24.732;2023-07-09T03:10:54;4.35;;;3.47;;
8050;SDS011;4068;42.158;24.732;2023-07-09T03:13:20;8.40;;;3.92;;
8050;SDS011;4068;42.158;24.732;2023-07-09T03:15:53;4.85;;;3.85;;
8050;SDS011;4068;42.158;24.732;2023-07-09T03:18:22;5.32;;;3.78;;
8050;SDS011;4068;42.158;24.732;2023-07-09T03:20:48;4.55;;;3.95;;
8050;SDS011;4068;42.158;24.732;2023-07-09T03:23:14;8.50;;;4.63;;
8050;SDS011;4068;42.158;24.732;2023-07-09T03:25:42;7.22;;;3.63;;
8050;SDS011;4068;42.158;24.732;2023-07-09T03:28:09;7.32;;;3.60;;
8050;SDS011;4068;42.158;24.732;2023-07-09T03:30:35;4.45;;;3.38;;
8050;SDS011;4068;42.158;24.732;2023-07-09T03:33:04;4.40;;;3.30;;
8050;SDS011;4068;42.158;24.732;2023-07-09T03:35:29;6.50;;;3.42;;
8050;SDS011;4068;42.158;24.732;2023-07-09T03:37:55;4.38;;;3.38;;
8050;SDS011;4068;42.158;24.732;2023-07-09T03:40:21;3.85;;;2.97;;
8050;SDS011;4068;42.158;24.732;2023-07-09T03:42:48;5.05;;;3.30;;
8050;SDS011;4068;42.158;24.732;2023-07-09T03:45:13;4.03;;;3.63;;
8050;SDS011;4068;42.158;24.732;2023-07-09T03:47:39;5.40;;;3.10;;
8050;SDS011;4068;42.158;24.732;2023-07-09T03:50:06;4.05;;;3.60;;
8050;SDS011;4068;42.158;24.732;2023-07-09T03:52:33;4.35;;;3.08;;
8050;SDS011;4068;42.158;24.732;2023-07-09T03:54:58;4.43;;;2.90;;
8050;SDS011;4068;42.158;24.732;2023-07-09T03:57:26;8.27;;;3.25;;
8050;SDS011;4068;42.158;24.732;2023-07-09T03:59:52;3.90;;;3.00;;
8050;SDS011;4068;42.158;24.732;2023-07-09T04:02:17;6.53;;;3.25;;
8050;SDS011;4068;42.158;24.732;2023-07-09T04:04:43;4.88;;;3.00;;
8050;SDS011;4068;42.158;24.732;2023-07-09T04:07:08;6.22;;;3.30;;
8050;SDS011;4068;42.158;24.732;2023-07-09T04:09:34;4.22;;;3.55;;
8050;SDS011;4068;42.158;24.732;2023-07-09T04:11:59;3.17;;;2.88;;
8050;SDS011;4068;42.158;24.732;2023-07-09T04:14:26;5.88;;;3.58;;
8050;SDS011;4068;42.158;24.732;2023-07-09T04:16:52;4.15;;;3.45;;
8050;SDS011;4068;42.158;24.732;2023-07-09T04:19:18;3.83;;;3.38;;
8050;SDS011;4068;42.158;24.732;2023-07-09T04:21:43;5.45;;;3.50;;
8050;SDS011;4068;42.158;24.732;2023-07-09T04:24:09;4.97;;;3.75;;
8050;SDS011;4068;42.158;24.732;2023-07-09T04:26:34;7.18;;;3.47;;
8050;SDS011;4068;42.158;24.732;2023-07-09T04:29:00;3.92;;;3.47;;
8050;SDS011;4068;42.158;24.732;2023-07-09T04:31:26;4.65;;;3.33;;
8050;SDS011;4068;42.158;24.732;2023-07-09T04:33:51;4.00;;;3.35;;
8050;SDS011;4068;42.158;24.732;2023-07-09T04:36:17;4.28;;;3.20;;
8050;SDS011;4068;42.158;24.732;2023-07-09T04:38:43;6.65;;;3.35;;
8050;SDS011;4068;42.158;24.732;2023-07-09T04:41:09;4.00;;;3.10;;
8050;SDS011;4068;42.158;24.732;2023-07-09T04:43:34;5.35;;;3.83;;
8050;SDS011;4068;42.158;24.732;2023-07-09T04:46:00;6.80;;;3.38;;
8050;SDS011;4068;42.158;24.732;2023-07-09T04:48:25;5.35;;;3.67;;
8050;SDS011;4068;42.158;24.732;2023-07-09T04:50:51;4.97;;;3.90;;
8050;SDS011;4068;42.158;24.732;2023-07-09T04:53:17;7.45;;;3.65;;
8050;SDS011;4068;42.158;24.732;2023-07-09T04:55:43;6.68;;;2.92;;
8050;SDS011;4068;42.158;24.732;2023-07-09T04:58:09;6.03;;;3.47;;
8050;SDS011;4068;42.158;24.732;2023-07-09T05:00:34;6.10;;;3.30;;
8050;SDS011;4068;42.158;24.732;2023-07-09T05:03:00;4.90;;;3.55;;
8050;SDS011;4068;42.158;24.732;2023-07-09T05:05:25;6.63;;;3.83;;
8050;SDS011;4068;42.158;24.732;2023-07-09T05:07:51;6.22;;;3.28;;
8050;SDS011;4068;42.158;24.732;2023-07-09T05:10:16;6.40;;;3.30;;
8050;SDS011;4068;42.158;24.732;2023-07-09T05:12:51;4.72;;;3.47;;
8050;SDS011;4068;42.158;24.732;2023-07-09T05:15:19;4.90;;;3.30;;
8050;SDS011;4068;42.158;24.732;2023-07-09T05:17:46;5.07;;;3.80;;
8050;SDS011;4068;42.158;24.732;2023-07-09T05:20:13;4.90;;;4.00;;
8050;SDS011;4068;42.158;24.732;2023-07-09T05:22:39;5.47;;;3.90;;
8050;SDS011;4068;42.158;24.732;2023-07-09T05:25:04;7.25;;;3.75;;
8050;SDS011;4068;42.158;24.732;2023-07-09T05:27:30;10.90;;;3.50;;
8050;SDS011;4068;42.158;24.732;2023-07-09T05:29:55;6.22;;;3.33;;
8050;SDS011;4068;42.158;24.732;2023-07-09T05:32:21;3.90;;;3.10;;
8050;SDS011;4068;42.158;24.732;2023-07-09T05:34:46;4.38;;;3.03;;
8050;SDS011;4068;42.158;24.732;2023-07-09T05:37:11;4.38;;;3.42;;
8050;SDS011;4068;42.158;24.732;2023-07-09T05:39:37;5.45;;;3.65;;
8050;SDS011;4068;42.158;24.732;2023-07-09T05:42:02;4.90;;;3.15;;
8050;SDS011;4068;42.158;24.732;2023-07-09T05:44:28;9.10;;;3.30;;
8050;SDS011;4068;42.158;24.732;2023-07-09T05:46:53;5.85;;;3.13;;
8050;SDS011;4068;42.158;24.732;2023-07-09T05:49:19;4.57;;;3.20;;
8050;SDS011;4068;42.158;24.732;2023-07-09T05:51:44;8.65;;;3.58;;
8050;SDS011;4068;42.158;24.732;2023-07-09T05:54:10;5.72;;;3.38;;
8050;SDS011;4068;42.158;24.732;2023-07-09T05:56:36;5.30;;;3.63;;
8050;SDS011;4068;42.158;24.732;2023-07-09T05:59:01;4.28;;;3.35;;
8050;SDS011;4068;42.158;24.732;2023-07-09T06:01:27;4.25;;;3.20;;
8050;SDS011;4068;42.158;24.732;2023-07-09T06:03:52;7.20;;;2.80;;
8050;SDS011;4068;42.158;24.732;2023-07-09T06:06:19;6.20;;;3.10;;
8050;SDS011;4068;42.158;24.732;2023-07-09T06:08:45;3.63;;;3.03;;
8050;SDS011;4068;42.158;24.732;2023-07-09T06:11:12;4.65;;;2.92;;
8050;SDS011;4068;42.158;24.732;2023-07-09T06:13:37;4.18;;;2.95;;
8050;SDS011;4068;42.158;24.732;2023-07-09T06:16:03;4.40;;;2.90;;
8050;SDS011;4068;42.158;24.732;2023-07-09T06:18:29;3.90;;;2.90;;
8050;SDS011;4068;42.158;24.732;2023-07-09T06:20:55;5.80;;;3.10;;
8050;SDS011;4068;42.158;24.732;2023-07-09T06:23:22;7.32;;;3.17;;
8050;SDS011;4068;42.158;24.732;2023-07-09T06:25:48;6.28;;;3.47;;
8050;SDS011;4068;42.158;24.732;2023-07-09T06:28:18;3.97;;;2.85;;
8050;SDS011;4068;42.158;24.732;2023-07-09T06:30:45;4.28;;;3.22;;
8050;SDS011;4068;42.158;24.732;2023-07-09T06:33:12;4.10;;;3.00;;
8050;SDS011;4068;42.158;24.732;2023-07-09T06:35:39;4.20;;;2.80;;
8050;SDS011;4068;42.158;24.732;2023-07-09T06:38:10;3.85;;;3.55;;
8050;SDS011;4068;42.158;24.732;2023-07-09T06:40:36;3.90;;;2.78;;
8050;SDS011;4068;42.158;24.732;2023-07-09T06:43:01;5.18;;;2.72;;
8050;SDS011;4068;42.158;24.732;2023-07-09T06:45:26;4.22;;;3.33;;
8050;SDS011;4068;42.158;24.732;2023-07-09T06:47:52;5.88;;;2.70;;
8050;SDS011;4068;42.158;24.732;2023-07-09T06:50:17;3.28;;;2.90;;
8050;SDS011;4068;42.158;24.732;2023-07-09T06:52:43;8.23;;;3.72;;
8050;SDS011;4068;42.158;24.732;2023-07-09T06:55:08;7.20;;;3.13;;
8050;SDS011;4068;42.158;24.732;2023-07-09T06:57:34;3.60;;;3.30;;
8050;SDS011;4068;42.158;24.732;2023-07-09T06:59:59;6.47;;;3.22;;
8050;SDS011;4068;42.158;24.732;2023-07-09T07:02:25;10.07;;;3.42;;
8050;SDS011;4068;42.158;24.732;2023-07-09T07:04:50;6.10;;;3.33;;
8050;SDS011;4068;42.158;24.732;2023-07-09T07:07:16;8.63;;;3.40;;
8050;SDS011;4068;42.158;24.732;2023-07-09T07:09:41;5.15;;;3.25;;
8050;SDS011;4068;42.158;24.732;2023-07-09T07:12:07;6.07;;;3.85;;
8050;SDS011;4068;42.158;24.732;2023-07-09T07:14:32;3.90;;;3.10;;
8050;SDS011;4068;42.158;24.732;2023-07-09T07:16:58;4.90;;;2.75;;
8050;SDS011;4068;42.158;24.732;2023-07-09T07:19:23;5.88;;;2.60;;
8050;SDS011;4068;42.158;24.732;2023-07-09T07:21:49;4.32;;;2.78;;
8050;SDS011;4068;42.158;24.732;2023-07-09T07:24:14;3.50;;;3.08;;
8050;SDS011;4068;42.158;24.732;2023-07-09T07:26:39;3.72;;;2.95;;
8050;SDS011;4068;42.158;24.732;2023-07-09T07:29:05;5.78;;;3.55;;
8050;SDS011;4068;42.158;24.732;2023-07-09T07:31:30;4.63;;;2.75;;
8050;SDS011;4068;42.158;24.732;2023-07-09T07:33:56;4.68;;;3.15;;
8050;SDS011;4068;42.158;24.732;2023-07-09T07:36:21;11.35;;;3.40;;
8050;SDS011;4068;42.158;24.732;2023-07-09T07:38:46;5.10;;;3.03;;
8050;SDS011;4068;42.158;24.732;2023-07-09T07:41:12;3.28;;;2.88;;
8050;SDS011;4068;42.158;24.732;2023-07-09T07:43:37;5.72;;;3.20;;
8050;SDS011;4068;42.158;24.732;2023-07-09T07:46:03;7.45;;;3.20;;
8050;SDS011;4068;42.158;24.732;2023-07-09T07:48:28;5.93;;;3.05;;
8050;SDS011;4068;42.158;24.732;2023-07-09T07:51:03;5.28;;;3.20;;
8050;SDS011;4068;42.158;24.732;2023-07-09T07:53:32;3.53;;;2.88;;
8050;SDS011;4068;42.158;24.732;2023-07-09T07:55:57;5.93;;;3.05;;
8050;SDS011;4068;42.158;24.732;2023-07-09T07:58:23;4.28;;;3.10;;
8050;SDS011;4068;42.158;24.732;2023-07-09T08:00:48;4.85;;;3.10;;
8050;SDS011;4068;42.158;24.732;2023-07-09T08:03:14;3.53;;;2.85;;
8050;SDS011;4068;42.158;24.732;2023-07-09T08:05:39;4.68;;;3.20;;
8050;SDS011;4068;42.158;24.732;2023-07-09T08:08:05;3.97;;;3.40;;
8050;SDS011;4068;42.158;24.732;2023-07-09T08:10:30;9.63;;;3.45;;
8050;SDS011;4068;42.158;24.732;2023-07-09T08:12:56;3.63;;;2.95;;
8050;SDS011;4068;42.158;24.732;2023-07-09T08:15:25;3.88;;;3.45;;
8050;SDS011;4068;42.158;24.732;2023-07-09T08:17:50;6.15;;;3.03;;
8050;SDS011;4068;42.158;24.732;2023-07-09T08:20:16;6.40;;;3.40;;
8050;SDS011;4068;42.158;24.732;2023-07-09T08:22:42;4.20;;;3.15;;
8050;SDS011;4068;42.158;24.732;2023-07-09T08:25:08;6.45;;;3.00;;
8050;SDS011;4068;42.158;24.732;2023-07-09T08:27:34;5.72;;;3.47;;
8050;SDS011;4068;42.158;24.732;2023-07-09T08:29:59;3.83;;;3.10;;
8050;SDS011;4068;42.158;24.732;2023-07-09T08:32:24;3.92;;;3.17;;
8050;SDS011;4068;42.158;24.732;2023-07-09T08:34:50;7.97;;;2.85;;
8050;SDS011;4068;42.158;24.732;2023-07-09T08:37:15;3.92;;;2.97;;
8050;SDS011;4068;42.158;24.732;2023-07-09T08:39:41;5.25;;;2.80;;
8050;SDS011;4068;42.158;24.732;2023-07-09T08:42:10;4.85;;;3.22;;
8050;SDS011;4068;42.158;24.732;2023-07-09T08:47:32;3.30;;;3.00;;
8050;SDS011;4068;42.158;24.732;2023-07-09T08:50:07;3.42;;;2.90;;
8050;SDS011;4068;42.158;24.732;2023-07-09T08:52:37;5.93;;;3.17;;
8050;SDS011;4068;42.158;24.732;2023-07-09T08:55:06;5.45;;;2.67;;
8050;SDS011;4068;42.158;24.732;2023-07-09T08:57:37;4.53;;;2.75;;
8050;SDS011;4068;42.158;24.732;2023-07-09T09:02:42;8.30;;;4.75;;
8050;SDS011;4068;42.158;24.732;2023-07-09T09:05:14;4.18;;;2.97;;
8050;SDS011;4068;42.158;24.732;2023-07-09T09:07:45;4.53;;;2.50;;
8050;SDS011;4068;42.158;24.732;2023-07-09T09:10:19;6.70;;;3.15;;
8050;SDS011;4068;42.158;24.732;2023-07-09T09:15:24;4.10;;;2.97;;
8050;SDS011;4068;42.158;24.732;2023-07-09T09:17:54;4.57;;;2.88;;
8050;SDS011;4068;42.158;24.732;2023-07-09T09:20:23;6.22;;;3.05;;
8050;SDS011;4068;42.158;24.732;2023-07-09T09:22:50;3.30;;;3.00;;
8050;SDS011;4068;42.158;24.732;2023-07-09T09:25:23;3.63;;;2.97;;
8050;SDS011;4068;42.158;24.732;2023-07-09T09:27:53;4.75;;;2.92;;
8050;SDS011;4068;42.158;24.732;2023-07-09T09:30:20;3.78;;;2.88;;
8050;SDS011;4068;42.158;24.732;2023-07-09T09:35:19;3.13;;;2.80;;
8050;SDS011;4068;42.158;24.732;2023-07-09T09:37:51;3.28;;;2.70;;
8050;SDS011;4068;42.158;24.732;2023-07-09T09:40:18;3.15;;;2.58;;
8050;SDS011;4068;42.158;24.732;2023-07-09T09:42:52;5.30;;;2.67;;
8050;SDS011;4068;42.158;24.732;2023-07-09T09:45:21;2.70;;;2.50;;
8050;SDS011;4068;42.158;24.732;2023-07-09T09:47:49;5.80;;;2.88;;
8050;SDS011;4068;42.158;24.732;2023-07-09T09:50:15;3.50;;;2.55;;
8050;SDS011;4068;42.158;24.732;2023-07-09T09:52:46;4.32;;;2.70;;
8050;SDS011;4068;42.158;24.732;2023-07-09T09:55:17;4.15;;;3.60;;
8050;SDS011;4068;42.158;24.732;2023-07-09T09:57:52;3.60;;;2.95;;
8050;SDS011;4068;42.158;24.732;2023-07-09T10:00:19;2.85;;;2.65;;
8050;SDS011;4068;42.158;24.732;2023-07-09T10:02:48;3.47;;;3.10;;
8050;SDS011;4068;42.158;24.732;2023-07-09T10:05:14;4.13;;;2.60;;
8050;SDS011;4068;42.158;24.732;2023-07-09T10:08:16;3.05;;;2.75;;
8050;SDS011;4068;42.158;24.732;2023-07-09T10:10:50;4.35;;;2.90;;
8050;SDS011;4068;42.158;24.732;2023-07-09T10:13:20;4.60;;;2.63;;
8050;SDS011;4068;42.158;24.732;2023-07-09T10:18:39;3.10;;;2.63;;
8050;SDS011;4068;42.158;24.732;2023-07-09T10:21:27;3.33;;;2.80;;
8050;SDS011;4068;42.158;24.732;2023-07-09T10:27:08;2.85;;;2.50;;
8050;SDS011;4068;42.158;24.732;2023-07-09T10:32:24;4.53;;;3.20;;
8050;SDS011;4068;42.158;24.732;2023-07-09T10:34:58;5.00;;;2.75;;
8050;SDS011;4068;42.158;24.732;2023-07-09T10:37:55;2.70;;;2.45;;
8050;SDS011;4068;42.158;24.732;2023-07-09T10:40:58;3.55;;;2.95;;
8050;SDS011;4068;42.158;24.732;2023-07-09T10:45:56;4.50;;;2.65;;
8050;SDS011;4068;42.158;24.732;2023-07-09T10:48:33;3.15;;;2.83;;
8050;SDS011;4068;42.158;24.732;2023-07-09T10:53:51;3.80;;;2.72;;
8050;SDS011;4068;42.158;24.732;2023-07-09T10:56:39;4.25;;;2.97;;
8050;SDS011;4068;42.158;24.732;2023-07-09T10:59:48;4.97;;;2.42;;
8050;SDS011;4068;42.158;24.732;2023-07-09T11:05:01;3.72;;;2.85;;
8050;SDS011;4068;42.158;24.732;2023-07-09T11:07:33;3.08;;;2.55;;
8050;SDS011;4068;42.158;24.732;2023-07-09T11:10:04;3.35;;;2.80;;
8050;SDS011;4068;42.158;24.732;2023-07-09T11:12:51;4.40;;;3.15;;
8050;SDS011;4068;42.158;24.732;2023-07-09T11:15:27;3.78;;;2.60;;
8050;SDS011;4068;42.158;24.732;2023-07-09T11:17:58;3.55;;;2.70;;
8050;SDS011;4068;42.158;24.732;2023-07-09T11:20:25;2.40;;;2.20;;
8050;SDS011;4068;42.158;24.732;2023-07-09T11:25:40;4.13;;;2.83;;
8050;SDS011;4068;42.158;24.732;2023-07-09T11:28:08;3.95;;;2.53;;
8050;SDS011;4068;42.158;24.732;2023-07-09T11:30:44;3.85;;;2.40;;
8050;SDS011;4068;42.158;24.732;2023-07-09T11:33:15;4.63;;;2.60;;
8050;SDS011;4068;42.158;24.732;2023-07-09T11:36:11;2.97;;;2.70;;
8050;SDS011;4068;42.158;24.732;2023-07-09T11:38:44;5.00;;;2.75;;
8050;SDS011;4068;42.158;24.732;2023-07-09T11:52:24;2.97;;;2.58;;
8050;SDS011;4068;42.158;24.732;2023-07-09T11:54:53;3.35;;;3.05;;
8050;SDS011;4068;42.158;24.732;2023-07-09T11:57:19;3.63;;;2.25;;
8050;SDS011;4068;42.158;24.732;2023-07-09T11:59:44;4.15;;;2.60;;
8050;SDS011;4068;42.158;24.732;2023-07-09T12:02:20;3.45;;;2.80;;
8050;SDS011;4068;42.158;24.732;2023-07-09T12:04:50;2.95;;;2.65;;
8050;SDS011;4068;42.158;24.732;2023-07-09T12:07:17;4.57;;;2.97;;
8050;SDS011;4068;42.158;24.732;2023-07-09T12:09:48;5.28;;;3.45;;
8050;SDS011;4068;42.158;24.732;2023-07-09T12:12:19;3.28;;;2.75;;
8050;SDS011;4068;42.158;24.732;2023-07-09T12:14:51;3.75;;;2.67;;
8050;SDS011;4068;42.158;24.732;2023-07-09T12:17:17;3.20;;;2.90;;
8050;SDS011;4068;42.158;24.732;2023-07-09T12:19:43;3.05;;;2.75;;
8050;SDS011;4068;42.158;24.732;2023-07-09T12:22:10;5.30;;;2.80;;
8050;SDS011;4068;42.158;24.732;2023-07-09T12:24:43;3.78;;;2.58;;
8050;SDS011;4068;42.158;24.732;2023-07-09T12:27:18;5.03;;;2.90;;
8050;SDS011;4068;42.158;24.732;2023-07-09T12:29:54;3.60;;;3.10;;
8050;SDS011;4068;42.158;24.732;2023-07-09T12:32:22;3.03;;;2.75;;
8050;SDS011;4068;42.158;24.732;2023-07-09T12:34:52;6.63;;;2.78;;
8050;SDS011;4068;42.158;24.732;2023-07-09T12:37:19;3.97;;;2.70;;
8050;SDS011;4068;42.158;24.732;2023-07-09T12:39:47;2.88;;;2.60;;
8050;SDS011;4068;42.158;24.732;2023-07-09T12:42:17;2.88;;;2.45;;
8050;SDS011;4068;42.158;24.732;2023-07-09T12:44:51;3.63;;;2.83;;
8050;SDS011;4068;42.158;24.732;2023-07-09T12:47:17;3.00;;;2.70;;
8050;SDS011;4068;42.158;24.732;2023-07-09T12:49:45;4.38;;;2.65;;
8050;SDS011;4068;42.158;24.732;2023-07-09T12:52:19;5.05;;;2.90;;
8050;SDS011;4068;42.158;24.732;2023-07-09T12:54:56;2.92;;;2.70;;
8050;SDS011;4068;42.158;24.732;2023-07-09T12:57:23;4.35;;;2.95;;
8050;SDS011;4068;42.158;24.732;2023-07-09T12:59:49;4.93;;;3.05;;
8050;SDS011;4068;42.158;24.732;2023-07-09T13:02:16;4.75;;;2.85;;
8050;SDS011;4068;42.158;24.732;2023-07-09T13:04:44;3.00;;;2.78;;
8050;SDS011;4068;42.158;24.732;2023-07-09T13:09:49;5.65;;;3.05;;
8050;SDS011;4068;42.158;24.732;2023-07-09T13:12:16;4.00;;;3.03;;
8050;SDS011;4068;42.158;24.732;2023-07-09T13:14:41;3.60;;;2.90;;
8050;SDS011;4068;42.158;24.732;2023-07-09T13:17:08;3.42;;;2.72;;
8050;SDS011;4068;42.158;24.732;2023-07-09T13:19:34;3.03;;;2.67;;
8050;SDS011;4068;42.158;24.732;2023-07-09T13:22:00;5.25;;;2.97;;
8050;SDS011;4068;42.158;24.732;2023-07-09T13:24:28;3.80;;;2.92;;
8050;SDS011;4068;42.158;24.732;2023-07-09T13:26:55;3.08;;;2.78;;
8050;SDS011;4068;42.158;24.732;2023-07-09T13:29:24;3.22;;;2.70;;
8050;SDS011;4068;42.158;24.732;2023-07-09T13:31:50;3.28;;;2.78;;
8050;SDS011;4068;42.158;24.732;2023-07-09T13:34:21;2.97;;;2.75;;
8050;SDS011;4068;42.158;24.732;2023-07-09T13:36:49;3.47;;;3.08;;
8050;SDS011;4068;42.158;24.732;2023-07-09T13:39:16;4.22;;;2.92;;
8050;SDS011;4068;42.158;24.732;2023-07-09T13:41:43;3.10;;;2.80;;
8050;SDS011;4068;42.158;24.732;2023-07-09T13:44:18;3.92;;;3.10;;
8050;SDS011;4068;42.158;24.732;2023-07-09T13:46:46;3.35;;;2.72;;
8050;SDS011;4068;42.158;24.732;2023-07-09T13:49:13;4.13;;;2.88;;
8050;SDS011;4068;42.158;24.732;2023-07-09T13:51:41;2.95;;;2.58;;
8050;SDS011;4068;42.158;24.732;2023-07-09T13:54:18;5.05;;;2.90;;
8050;SDS011;4068;42.158;24.732;2023-07-09T13:56:51;3.20;;;2.70;;
8050;SDS011;4068;42.158;24.732;2023-07-09T13:59:18;7.07;;;2.53;;
8050;SDS011;4068;42.158;24.732;2023-07-09T14:01:47;3.83;;;2.70;;
8050;SDS011;4068;42.158;24.732;2023-07-09T14:04:15;3.22;;;2.67;;
8050;SDS011;4068;42.158;24.732;2023-07-09T14:06:42;3.00;;;2.70;;
8050;SDS011;4068;42.158;24.732;2023-07-09T14:09:08;3.13;;;2.70;;
8050;SDS011;4068;42.158;24.732;2023-07-09T14:11:35;3.85;;;2.85;;
8050;SDS011;4068;42.158;24.732;2023-07-09T14:14:17;5.93;;;3.25;;
8050;SDS011;4068;42.158;24.732;2023-07-09T14:16:44;3.70;;;2.63;;
8050;SDS011;4068;42.158;24.732;2023-07-09T14:19:14;3.60;;;2.80;;
8050;SDS011;4068;42.158;24.732;2023-07-09T14:21:44;5.95;;;3.13;;
8050;SDS011;4068;42.158;24.732;2023-07-09T14:24:24;5.20;;;3.20;;
8050;SDS011;4068;42.158;24.732;2023-07-09T14:26:53;3.60;;;2.78;;
8050;SDS011;4068;42.158;24.732;2023-07-09T14:29:21;3.25;;;2.83;;
8050;SDS011;4068;42.158;24.732;2023-07-09T14:31:47;3.25;;;2.95;;
8050;SDS011;4068;42.158;24.732;2023-07-09T14:36:50;3.15;;;2.85;;
8050;SDS011;4068;42.158;24.732;2023-07-09T14:39:16;3.20;;;2.90;;
8050;SDS011;4068;42.158;24.732;2023-07-09T14:41:42;5.53;;;2.90;;
8050;SDS011;4068;42.158;24.732;2023-07-09T14:44:15;4.63;;;3.05;;
8050;SDS011;4068;42.158;24.732;2023-07-09T14:46:43;4.68;;;2.90;;
8050;SDS011;4068;42.158;24.732;2023-07-09T14:49:09;3.10;;;2.80;;
8050;SDS011;4068;42.158;24.732;2023-07-09T14:51:34;3.80;;;3.40;;
8050;SDS011;4068;42.158;24.732;2023-07-09T14:53:59;3.95;;;2.97;;
8050;SDS011;4068;42.158;24.732;2023-07-09T14:56:25;2.90;;;2.70;;
8050;SDS011;4068;42.158;24.732;2023-07-09T14:58:51;3.45;;;3.15;;
8050;SDS011;4068;42.158;24.732;2023-07-09T15:01:17;4.30;;;2.90;;
8050;SDS011;4068;42.158;24.732;2023-07-09T15:03:43;3.70;;;3.15;;
8050;SDS011;4068;42.158;24.732;2023-07-09T15:06:09;12.73;;;3.10;;
8050;SDS011;4068;42.158;24.732;2023-07-09T15:08:34;3.28;;;2.97;;
8050;SDS011;4068;42.158;24.732;2023-07-09T15:11:00;2.95;;;2.65;;
8050;SDS011;4068;42.158;24.732;2023-07-09T15:13:27;6.93;;;3.17;;
8050;SDS011;4068;42.158;24.732;2023-07-09T15:15:59;3.65;;;3.10;;
8050;SDS011;4068;42.158;24.732;2023-07-09T15:18:25;6.05;;;2.85;;
8050;SDS011;4068;42.158;24.732;2023-07-09T15:20:58;3.47;;;2.75;;
8050;SDS011;4068;42.158;24.732;2023-07-09T15:23:25;3.80;;;3.17;;
8050;SDS011;4068;42.158;24.732;2023-07-09T15:25:53;3.17;;;2.83;;
8050;SDS011;4068;42.158;24.732;2023-07-09T15:28:18;3.08;;;2.78;;
8050;SDS011;4068;42.158;24.732;2023-07-09T15:30:44;8.93;;;3.08;;
8050;SDS011;4068;42.158;24.732;2023-07-09T15:33:17;3.45;;;3.00;;
8050;SDS011;4068;42.158;24.732;2023-07-09T15:35:45;4.53;;;3.17;;
8050;SDS011;4068;42.158;24.732;2023-07-09T15:40:45;4.35;;;3.53;;
8050;SDS011;4068;42.158;24.732;2023-07-09T15:43:12;3.70;;;3.10;;
8050;SDS011;4068;42.158;24.732;2023-07-09T15:45:39;6.78;;;3.13;;
8050;SDS011;4068;42.158;24.732;2023-07-09T15:51:00;3.17;;;2.88;;
8050;SDS011;4068;42.158;24.732;2023-07-09T15:53:27;4.32;;;3.38;;
8050;SDS011;4068;42.158;24.732;2023-07-09T15:55:54;4.95;;;2.78;;
8050;SDS011;4068;42.158;24.732;2023-07-09T15:58:25;5.15;;;3.22;;
8050;SDS011;4068;42.158;24.732;2023-07-09T16:00:53;3.40;;;3.05;;